PWSweather.com
Personal Weather Stations
Station Observations
REUBENS
Camas Prairie, Reubens, ID 83548

Camas PrairieReubens, ID 83548

Lat: 46.35417, Lon: -116.53167

Elevation: 3480

Station Type: Davis VantagePro 2

http://www.theobrienranch.com/wx/wx.htm

Latest ConditionsUpdated 11:45:00 AM PST Tuesday, Dec 6, 2016
Currently Today's Max Today's Min Today's Average
Temperature 23.8°F-4.6°C 25.8°F-3.4°C 20.6°F-6.3°C 21.6°F-5.8°C
Dew Point 21.6°F-5.8°C 23.5°F-4.7°C 17.9°F-7.8°C 19.3°F-7.1°C
Winds 1.2 mph W1.9 kmh W 12.7 mph E20.4 kmh E - 5.4 mph 8.7 kmh
Wind Gusts 2.3 mph3.7 kmh 13.8 mph22.2 kmh - -
Humidity 91% 93% 82% 91%
Pressure 30.18 in1022.0 mb 30.20 in1022.7 mb 30.13 in1020.3 mb -
Hour Temp Dew Point Humidity Winds Wind Gusts Pressure Precip Precip Rate Daily Precip Total
11:45 AM 23.8°F-4.6°C 21.6°F-5.8°C 91% 1.2 mph W1.9 kmh W 2.3 mph3.7 kmh 30.18 in1022.0 mb - 0.00 in0.0 mm 0.00 in0.0 mm
11:30 AM 25.8°F-3.4°C 23.5°F-4.7°C 91% 2.3 mph E3.7 kmh E 3.5 mph5.6 kmh 30.17 in1021.7 mb - 0.00 in0.0 mm 0.00 in0.0 mm
11:15 AM 25.4°F-3.7°C 23.4°F-4.8°C 92% Calm Calm -- 30.17 in1021.7 mb - 0.00 in0.0 mm 0.00 in0.0 mm
11:00 AM 24.2°F-4.3°C 22.5°F-5.3°C 93% Calm Calm -- 30.18 in1022.0 mb - 0.00 in0.0 mm 0.00 in0.0 mm
10:45 AM 23.2°F-4.9°C 21.2°F-6.0°C 92% Calm Calm -- 30.18 in1022.0 mb - 0.00 in0.0 mm 0.00 in0.0 mm
10:30 AM 22.2°F-5.4°C 20.2°F-6.6°C 92% 1.2 mph E1.9 kmh E 2.3 mph3.7 kmh 30.19 in1022.4 mb - 0.00 in0.0 mm 0.00 in0.0 mm
10:15 AM 21.8°F-5.7°C 19.8°F-6.8°C 92% Calm Calm -- 30.19 in1022.4 mb - 0.00 in0.0 mm 0.00 in0.0 mm
10:00 AM 21.3°F-5.9°C 19.3°F-7.1°C 92% Calm Calm -- 30.20 in1022.7 mb - 0.00 in0.0 mm 0.00 in0.0 mm
09:45 AM 21.3°F-5.9°C 19.3°F-7.1°C 92% Calm Calm -- 30.19 in1022.4 mb - 0.00 in0.0 mm 0.00 in0.0 mm
09:30 AM 21.1°F-6.1°C 19.1°F-7.2°C 92% Calm Calm -- 30.19 in1022.4 mb - 0.00 in0.0 mm 0.00 in0.0 mm
09:15 AM 21.2°F-6.0°C 19.2°F-7.1°C 92% 2.3 mph E3.7 kmh E 2.3 mph3.7 kmh 30.18 in1022.0 mb - 0.00 in0.0 mm 0.00 in0.0 mm
09:00 AM 21.1°F-6.1°C 19.2°F-7.1°C 92% 1.2 mph E1.9 kmh E 3.5 mph5.6 kmh 30.18 in1022.0 mb - 0.00 in0.0 mm 0.00 in0.0 mm
08:45 AM 21.0°F-6.1°C 19.0°F-7.2°C 92% Calm Calm -- 30.18 in1022.0 mb - 0.00 in0.0 mm 0.00 in0.0 mm
08:30 AM 20.8°F-6.2°C 18.9°F-7.3°C 92% 2.3 mph E3.7 kmh E 3.5 mph5.6 kmh 30.17 in1021.7 mb - 0.00 in0.0 mm 0.00 in0.0 mm
08:15 AM 20.8°F-6.2°C 18.8°F-7.3°C 92% 2.3 mph E3.7 kmh E 2.3 mph3.7 kmh 30.17 in1021.7 mb - 0.00 in0.0 mm 0.00 in0.0 mm
08:00 AM 20.7°F-6.3°C 18.7°F-7.4°C 92% 2.3 mph E3.7 kmh E 3.5 mph5.6 kmh 30.16 in1021.3 mb - 0.00 in0.0 mm 0.00 in0.0 mm
07:45 AM 20.6°F-6.3°C 18.6°F-7.4°C 92% 2.3 mph E3.7 kmh E 3.5 mph5.6 kmh 30.16 in1021.3 mb - 0.00 in0.0 mm 0.00 in0.0 mm
07:30 AM 20.6°F-6.3°C 18.6°F-7.4°C 92% 3.5 mph E5.6 kmh E 3.5 mph5.6 kmh 30.16 in1021.3 mb - 0.00 in0.0 mm 0.00 in0.0 mm
07:15 AM 20.6°F-6.3°C 18.6°F-7.4°C 92% 3.5 mph E5.6 kmh E 3.5 mph5.6 kmh 30.15 in1021.0 mb - 0.00 in0.0 mm 0.00 in0.0 mm
07:00 AM 20.7°F-6.3°C 18.7°F-7.4°C 92% 4.6 mph E7.4 kmh E 5.8 mph9.3 kmh 30.15 in1021.0 mb - 0.00 in0.0 mm 0.00 in0.0 mm
06:45 AM 20.7°F-6.3°C 18.7°F-7.4°C 92% 5.8 mph E9.3 kmh E 5.8 mph9.3 kmh 30.15 in1021.0 mb - 0.00 in0.0 mm 0.00 in0.0 mm
06:30 AM 20.8°F-6.2°C 18.8°F-7.3°C 92% 5.8 mph E9.3 kmh E 5.8 mph9.3 kmh 30.15 in1021.0 mb - 0.00 in0.0 mm 0.00 in0.0 mm
06:15 AM 20.8°F-6.2°C 18.8°F-7.3°C 92% 8.1 mph E13.0 kmh E 10.4 mph16.7 kmh 30.14 in1020.7 mb - 0.00 in0.0 mm 0.00 in0.0 mm
06:00 AM 20.9°F-6.2°C 19.0°F-7.2°C 92% 6.9 mph E11.1 kmh E 9.2 mph14.8 kmh 30.13 in1020.3 mb - 0.00 in0.0 mm 0.00 in0.0 mm
05:45 AM 21.0°F-6.1°C 19.0°F-7.2°C 92% 4.6 mph E7.4 kmh E 5.8 mph9.3 kmh 30.13 in1020.3 mb - 0.00 in0.0 mm 0.00 in0.0 mm
05:30 AM 21.0°F-6.1°C 19.0°F-7.2°C 92% 4.6 mph E7.4 kmh E 5.8 mph9.3 kmh 30.13 in1020.3 mb - 0.00 in0.0 mm 0.00 in0.0 mm
05:15 AM 20.9°F-6.2°C 18.9°F-7.3°C 92% 3.5 mph E5.6 kmh E 3.5 mph5.6 kmh 30.13 in1020.3 mb - 0.00 in0.0 mm 0.00 in0.0 mm
05:00 AM 21.0°F-6.1°C 19.0°F-7.2°C 92% 4.6 mph E7.4 kmh E 6.9 mph11.1 kmh 30.13 in1020.3 mb - 0.00 in0.0 mm 0.00 in0.0 mm
04:45 AM 21.0°F-6.1°C 19.0°F-7.2°C 92% 5.8 mph E9.3 kmh E 6.9 mph11.1 kmh 30.13 in1020.3 mb - 0.00 in0.0 mm 0.00 in0.0 mm
04:30 AM 21.1°F-6.1°C 19.1°F-7.2°C 92% 5.8 mph E9.3 kmh E 6.9 mph11.1 kmh 30.13 in1020.3 mb - 0.00 in0.0 mm 0.00 in0.0 mm
04:15 AM 21.1°F-6.1°C 19.1°F-7.2°C 92% 6.9 mph E11.1 kmh E 6.9 mph11.1 kmh 30.14 in1020.7 mb - 0.00 in0.0 mm 0.00 in0.0 mm
04:00 AM 21.0°F-6.1°C 19.1°F-7.2°C 92% 6.9 mph E11.1 kmh E 8.1 mph13.0 kmh 30.14 in1020.7 mb - 0.00 in0.0 mm 0.00 in0.0 mm
03:45 AM 21.1°F-6.1°C 19.1°F-7.2°C 92% 9.2 mph E14.8 kmh E 10.4 mph16.7 kmh 30.14 in1020.7 mb - 0.00 in0.0 mm 0.00 in0.0 mm
03:30 AM 21.1°F-6.1°C 19.1°F-7.2°C 92% 6.9 mph E11.1 kmh E 10.4 mph16.7 kmh 30.14 in1020.7 mb - 0.00 in0.0 mm 0.00 in0.0 mm
03:15 AM 21.1°F-6.1°C 18.9°F-7.3°C 91% 10.4 mph E16.7 kmh E 11.5 mph18.5 kmh 30.14 in1020.7 mb - 0.00 in0.0 mm 0.00 in0.0 mm
03:00 AM 21.2°F-6.0°C 19.0°F-7.2°C 91% 6.9 mph E11.1 kmh E 9.2 mph14.8 kmh 30.14 in1020.7 mb - 0.00 in0.0 mm 0.00 in0.0 mm
02:45 AM 21.2°F-6.0°C 19.0°F-7.2°C 91% 8.1 mph E13.0 kmh E 10.4 mph16.7 kmh 30.14 in1020.7 mb - 0.00 in0.0 mm 0.00 in0.0 mm
02:30 AM 21.2°F-6.0°C 19.0°F-7.2°C 91% 11.5 mph E18.5 kmh E 11.5 mph18.5 kmh 30.14 in1020.7 mb - 0.00 in0.0 mm 0.00 in0.0 mm
02:15 AM 21.3°F-5.9°C 18.8°F-7.3°C 90% 11.5 mph E18.5 kmh E 12.7 mph20.4 kmh 30.15 in1021.0 mb - 0.00 in0.0 mm 0.00 in0.0 mm
02:00 AM 21.5°F-5.8°C 19.0°F-7.2°C 90% 10.4 mph E16.7 kmh E 11.5 mph18.5 kmh 30.14 in1020.7 mb - 0.00 in0.0 mm 0.00 in0.0 mm
01:45 AM 21.7°F-5.7°C 19.0°F-7.2°C 89% 11.5 mph E18.5 kmh E 11.5 mph18.5 kmh 30.14 in1020.7 mb - 0.00 in0.0 mm 0.00 in0.0 mm
01:30 AM 21.9°F-5.6°C 18.9°F-7.3°C 88% 9.2 mph E14.8 kmh E 11.5 mph18.5 kmh 30.14 in1020.7 mb - 0.00 in0.0 mm 0.00 in0.0 mm
01:15 AM 22.2°F-5.4°C 18.4°F-7.6°C 85% 9.2 mph E14.8 kmh E 11.5 mph18.5 kmh 30.14 in1020.7 mb - 0.00 in0.0 mm 0.00 in0.0 mm
01:00 AM 22.3°F-5.4°C 18.2°F-7.7°C 84% 9.2 mph E14.8 kmh E 11.5 mph18.5 kmh 30.15 in1021.0 mb - 0.00 in0.0 mm 0.00 in0.0 mm
12:45 AM 22.4°F-5.3°C 18.3°F-7.6°C 84% 11.5 mph E18.5 kmh E 12.7 mph20.4 kmh 30.16 in1021.3 mb - 0.00 in0.0 mm 0.00 in0.0 mm
12:30 AM 22.6°F-5.2°C 18.2°F-7.7°C 83% 12.7 mph E20.4 kmh E 13.8 mph22.2 kmh 30.16 in1021.3 mb - 0.00 in0.0 mm 0.00 in0.0 mm
12:15 AM 22.6°F-5.2°C 18.0°F-7.8°C 82% 10.4 mph E16.7 kmh E 12.7 mph20.4 kmh 30.16 in1021.3 mb - 0.00 in0.0 mm 0.00 in0.0 mm
12:00 AM 22.6°F-5.2°C 17.9°F-7.8°C 82% 11.5 mph E18.5 kmh E 13.8 mph22.2 kmh 30.16 in1021.3 mb - 0.00 in0.0 mm 0.00 in0.0 mm